Time;durP1;ratioP1;P1;durP2;ratioP2;P2;SDS_P1;SDS_P2;PMS_P1;PMS_P2;Temp;Humidity;BMP_temperature;BMP_pressure;BME280_temperature;BME280_humidity;BME280_pressure;Samples;Min_cycle;Max_cycle;Signal;HPM_P1;HPM_P2
2024/04/16 00:01:06;;;;;;;54.15;51.42;;;;;;;;;;5363488;26;20019;-69
2024/04/16 00:03:32;;;;;;;55.15;52.38;;;;;;;;;;5363216;26;20052;-69
2024/04/16 00:05:58;;;;;;;48.22;45.80;;;;;;;;;;5359958;26;20012;-70
2024/04/16 00:08:23;;;;;;;52.70;49.97;;;;;;;;;;5362080;26;20005;-69
2024/04/16 00:10:49;;;;;;;56.53;53.67;;;;;;;;;;5360797;26;20015;-69
2024/04/16 00:13:14;;;;;;;49.33;46.83;;;;;;;;;;5360995;26;20083;-66
2024/04/16 00:15:39;;;;;;;47.70;45.28;;;;;;;;;;5360746;26;20005;-66
2024/04/16 00:18:05;;;;;;;53.00;50.10;;;;;;;;;;5356845;26;20860;-65
2024/04/16 00:20:30;;;;;;;47.42;45.03;;;;;;;;;;5359829;26;20718;-65
2024/04/16 00:22:55;;;;;;;47.20;44.70;;;;;;;;;;5361999;26;20435;-65
2024/04/16 00:25:21;;;;;;;47.63;45.13;;;;;;;;;;5363674;26;20345;-66
2024/04/16 00:27:46;;;;;;;42.75;40.55;;;;;;;;;;5358441;26;20072;-65
2024/04/16 00:30:11;;;;;;;48.53;46.08;;;;;;;;;;5361173;26;20080;-66
2024/04/16 00:32:37;;;;;;;50.40;47.65;;;;;;;;;;5358129;26;20008;-65
2024/04/16 00:35:02;;;;;;;48.13;45.70;;;;;;;;;;5362308;26;20045;-66
2024/04/16 00:37:28;;;;;;;49.10;46.50;;;;;;;;;;5360212;26;20005;-69
2024/04/16 00:39:53;;;;;;;43.38;41.17;;;;;;;;;;5363489;26;20092;-69
2024/04/16 00:42:18;;;;;;;48.25;45.65;;;;;;;;;;5358110;26;20004;-69
2024/04/16 00:44:44;;;;;;;48.22;45.70;;;;;;;;;;5359878;26;20005;-69
2024/04/16 00:47:10;;;;;;;44.85;42.50;;;;;;;;;;5357957;26;20016;-70
2024/04/16 00:49:36;;;;;;;39.58;37.55;;;;;;;;;;5360027;26;20023;-68
2024/04/16 00:52:02;;;;;;;43.08;40.88;;;;;;;;;;5357920;26;20365;-69
2024/04/16 00:54:27;;;;;;;43.28;41.03;;;;;;;;;;5361301;26;20436;-66
2024/04/16 00:56:56;;;;;;;41.00;38.90;;;;;;;;;;5362573;26;20004;-66
2024/04/16 00:59:25;;;;;;;42.97;40.72;;;;;;;;;;5357512;26;20005;-70
2024/04/16 01:01:54;;;;;;;45.70;43.25;;;;;;;;;;5364039;26;20342;-69
2024/04/16 01:04:20;;;;;;;41.90;39.80;;;;;;;;;;5365464;26;20024;-69
2024/04/16 01:06:46;;;;;;;40.75;38.65;;;;;;;;;;5362330;26;20032;-69
2024/04/16 01:09:13;;;;;;;39.78;37.67;;;;;;;;;;5359619;26;20008;-70
2024/04/16 01:11:39;;;;;;;40.50;38.40;;;;;;;;;;5361351;26;20023;-69
2024/04/16 01:14:04;;;;;;;44.65;42.35;;;;;;;;;;5359218;26;20024;-69
2024/04/16 01:16:29;;;;;;;42.72;40.42;;;;;;;;;;5358379;26;20005;-67
2024/04/16 01:18:55;;;;;;;38.13;36.13;;;;;;;;;;5361508;26;20004;-67
2024/04/16 01:21:20;;;;;;;41.05;38.95;;;;;;;;;;5364275;26;20008;-67
2024/04/16 01:23:45;;;;;;;43.60;41.38;;;;;;;;;;5358724;26;20072;-70
2024/04/16 01:26:10;;;;;;;41.42;39.13;;;;;;;;;;5365472;26;20000;-69
2024/04/16 01:28:36;;;;;;;44.38;42.10;;;;;;;;;;5360294;26;20008;-69
2024/04/16 01:31:01;;;;;;;47.20;44.80;;;;;;;;;;5363808;26;20073;-69
2024/04/16 01:33:26;;;;;;;49.10;45.25;;;;;;;;;;5362008;26;20015;-69
2024/04/16 01:35:53;;;;;;;50.70;48.13;;;;;;;;;;5359191;26;20078;-69
2024/04/16 01:38:19;;;;;;;39.20;36.90;;;;;;;;;;5360562;26;20005;-70
2024/04/16 01:40:44;;;;;;;45.03;42.75;;;;;;;;;;5358730;26;20066;-70
2024/04/16 01:43:10;;;;;;;43.97;41.60;;;;;;;;;;5362974;26;21724;-68
2024/04/16 01:45:35;;;;;;;47.78;45.35;;;;;;;;;;5359638;26;19997;-69
2024/04/16 01:48:01;;;;;;;53.33;50.45;;;;;;;;;;5355316;26;20001;-68
2024/04/16 01:50:26;;;;;;;49.63;46.92;;;;;;;;;;5359668;26;20024;-70
2024/04/16 01:52:51;;;;;;;48.70;46.25;;;;;;;;;;5361394;26;20020;-69
2024/04/16 01:55:17;;;;;;;42.30;40.15;;;;;;;;;;5362627;26;20016;-70
2024/04/16 01:57:43;;;;;;;46.78;44.40;;;;;;;;;;5362041;26;20009;-70
2024/04/16 02:00:09;;;;;;;48.22;44.88;;;;;;;;;;5367420;26;20368;-70
2024/04/16 02:02:35;;;;;;;47.05;44.63;;;;;;;;;;5362488;26;20011;-69
2024/04/16 02:05:01;;;;;;;45.92;43.58;;;;;;;;;;5363443;26;20017;-69
2024/04/16 02:07:27;;;;;;;44.53;42.25;;;;;;;;;;5364609;26;20093;-69
2024/04/16 02:09:52;;;;;;;44.17;41.90;;;;;;;;;;5365135;26;20434;-69
2024/04/16 02:12:18;;;;;;;44.95;42.65;;;;;;;;;;5368836;26;20005;-70
2024/04/16 02:14:44;;;;;;;45.28;42.25;;;;;;;;;;5363639;26;20318;-70
2024/04/16 02:17:09;;;;;;;45.13;42.80;;;;;;;;;;5367938;26;19996;-70
2024/04/16 02:19:34;;;;;;;45.65;43.35;;;;;;;;;;5363846;26;20004;-70
2024/04/16 02:22:00;;;;;;;44.50;42.22;;;;;;;;;;5362661;26;20020;-70
2024/04/16 02:24:25;;;;;;;44.45;42.20;;;;;;;;;;5361780;26;20013;-70
2024/04/16 02:26:51;;;;;;;44.97;42.70;;;;;;;;;;5337800;26;20004;-70
2024/04/16 02:29:16;;;;;;;43.47;41.28;;;;;;;;;;5361922;26;20012;-70
2024/04/16 02:31:41;;;;;;;43.45;41.25;;;;;;;;;;5362666;26;20026;-70
2024/04/16 02:34:06;;;;;;;45.17;42.88;;;;;;;;;;5355885;26;19997;-70
2024/04/16 02:36:32;;;;;;;42.42;40.28;;;;;;;;;;5359877;26;20369;-70
2024/04/16 02:38:57;;;;;;;43.53;41.33;;;;;;;;;;5359898;26;20317;-70
2024/04/16 02:41:22;;;;;;;44.80;42.50;;;;;;;;;;5356225;26;20663;-70
2024/04/16 02:43:48;;;;;;;43.55;41.35;;;;;;;;;;5359451;26;21006;-69
2024/04/16 02:46:13;;;;;;;39.72;37.70;;;;;;;;;;5359314;26;20460;-70
2024/04/16 02:48:38;;;;;;;43.83;41.58;;;;;;;;;;5356290;26;20004;-70
2024/04/16 02:51:04;;;;;;;37.03;35.13;;;;;;;;;;5355628;26;20008;-69
2024/04/16 02:53:29;;;;;;;41.08;38.95;;;;;;;;;;5364113;26;20480;-66
2024/04/16 02:55:54;;;;;;;40.72;38.65;;;;;;;;;;5360618;26;21569;-66
2024/04/16 02:58:21;;;;;;;42.03;39.88;;;;;;;;;;5359969;26;20416;-66
2024/04/16 03:00:46;;;;;;;39.83;37.78;;;;;;;;;;5365387;26;20054;-69
2024/04/16 03:03:14;;;;;;;42.25;40.10;;;;;;;;;;5366046;26;20010;-69
2024/04/16 03:05:40;;;;;;;40.35;38.25;;;;;;;;;;5369237;26;20016;-70
2024/04/16 03:08:05;;;;;;;43.20;41.00;;;;;;;;;;5368999;26;20535;-70
2024/04/16 03:10:31;;;;;;;43.47;41.22;;;;;;;;;;5363271;26;20012;-69
2024/04/16 03:12:56;;;;;;;41.80;39.70;;;;;;;;;;5369272;26;19997;-70
2024/04/16 03:15:21;;;;;;;43.45;41.25;;;;;;;;;;5365032;26;20012;-70
2024/04/16 03:17:47;;;;;;;43.33;41.13;;;;;;;;;;5367835;26;20007;-69
2024/04/16 03:20:12;;;;;;;43.13;40.92;;;;;;;;;;5364502;26;20078;-70
2024/04/16 03:22:37;;;;;;;42.80;40.60;;;;;;;;;;5368981;26;20027;-70
2024/04/16 03:25:03;;;;;;;43.65;41.45;;;;;;;;;;5366540;26;20067;-70
2024/04/16 03:27:28;;;;;;;40.00;37.97;;;;;;;;;;5364654;26;19997;-70
2024/04/16 03:29:54;;;;;;;39.47;37.47;;;;;;;;;;5368862;26;20008;-70
2024/04/16 03:32:21;;;;;;;40.50;38.42;;;;;;;;;;5367353;26;20002;-70
2024/04/16 03:34:46;;;;;;;41.08;38.58;;;;;;;;;;5364632;26;20001;-70
2024/04/16 03:37:11;;;;;;;40.65;38.55;;;;;;;;;;5372167;26;20003;-71
2024/04/16 03:39:37;;;;;;;43.70;41.42;;;;;;;;;;5369753;26;20008;-70
2024/04/16 03:42:02;;;;;;;41.30;39.20;;;;;;;;;;5373902;26;20012;-69
2024/04/16 03:44:28;;;;;;;40.65;38.58;;;;;;;;;;5372035;26;20012;-70
2024/04/16 03:46:53;;;;;;;42.35;40.17;;;;;;;;;;5371762;26;20005;-70
2024/04/16 03:49:18;;;;;;;40.25;38.17;;;;;;;;;;5366171;26;20023;-70
2024/04/16 03:51:43;;;;;;;41.78;39.67;;;;;;;;;;5368689;26;20004;-70
2024/04/16 03:54:09;;;;;;;44.20;41.95;;;;;;;;;;5368299;26;20469;-70
2024/04/16 03:56:34;;;;;;;40.35;38.25;;;;;;;;;;5368461;26;20867;-70
2024/04/16 03:59:16;;;;;;;41.60;39.50;;;;;;;;;;5367689;26;20448;-70
2024/04/16 04:01:44;;;;;;;39.65;37.60;;;;;;;;;;5366652;26;20015;-71
2024/04/16 04:04:11;;;;;;;38.97;36.97;;;;;;;;;;5366567;26;20008;-70
2024/04/16 04:06:36;;;;;;;38.33;36.17;;;;;;;;;;5368849;26;20004;-70
2024/04/16 04:09:02;;;;;;;38.28;36.28;;;;;;;;;;5371444;26;20731;-71
2024/04/16 04:11:27;;;;;;;37.53;35.63;;;;;;;;;;5365697;26;20008;-70
2024/04/16 04:13:52;;;;;;;39.22;37.22;;;;;;;;;;5367444;26;20004;-70
2024/04/16 04:16:18;;;;;;;36.42;34.53;;;;;;;;;;5366666;26;20005;-70
2024/04/16 04:18:44;;;;;;;35.47;33.65;;;;;;;;;;5368100;26;19996;-71
2024/04/16 04:21:10;;;;;;;35.05;33.25;;;;;;;;;;5364978;26;20015;-70
2024/04/16 04:23:36;;;;;;;35.50;33.70;;;;;;;;;;5363391;26;20010;-70
2024/04/16 04:26:01;;;;;;;34.65;32.85;;;;;;;;;;5367539;26;20008;-70
2024/04/16 04:28:27;;;;;;;34.15;32.35;;;;;;;;;;5364548;26;20236;-70
2024/04/16 04:30:52;;;;;;;33.22;31.48;;;;;;;;;;5367644;26;20011;-70
2024/04/16 04:33:17;;;;;;;33.58;31.88;;;;;;;;;;5365247;26;20005;-70
2024/04/16 04:35:43;;;;;;;32.13;30.42;;;;;;;;;;5363244;26;20042;-70
2024/04/16 04:38:08;;;;;;;33.65;31.55;;;;;;;;;;5367324;26;19996;-70
2024/04/16 04:40:35;;;;;;;34.13;32.38;;;;;;;;;;5360281;26;20422;-70
2024/04/16 04:43:01;;;;;;;34.75;32.95;;;;;;;;;;5361464;26;20408;-70
2024/04/16 04:45:26;;;;;;;32.83;31.02;;;;;;;;;;5361613;26;20001;-70
2024/04/16 04:47:51;;;;;;;31.50;29.90;;;;;;;;;;5364106;26;20039;-70
2024/04/16 04:50:17;;;;;;;31.88;30.23;;;;;;;;;;5365454;26;20012;-69
2024/04/16 04:52:42;;;;;;;32.83;30.98;;;;;;;;;;5363516;26;20030;-69
2024/04/16 04:55:08;;;;;;;31.63;29.92;;;;;;;;;;5362879;26;20090;-70
2024/04/16 04:57:33;;;;;;;32.33;30.63;;;;;;;;;;5392045;26;20012;-70
2024/04/16 04:59:58;;;;;;;31.05;29.45;;;;;;;;;;5363015;26;20001;-70
2024/04/16 05:02:24;;;;;;;29.63;28.08;;;;;;;;;;5361171;26;20000;-70
2024/04/16 05:04:49;;;;;;;30.33;28.70;;;;;;;;;;5359523;26;20030;-70
2024/04/16 05:07:15;;;;;;;28.83;27.33;;;;;;;;;;5368068;26;20027;-68
2024/04/16 05:09:40;;;;;;;28.05;26.55;;;;;;;;;;5363229;26;20051;-69
2024/04/16 05:12:05;;;;;;;28.13;26.63;;;;;;;;;;5359084;26;20044;-70
2024/04/16 05:14:31;;;;;;;28.48;26.98;;;;;;;;;;5357021;26;20016;-71
2024/04/16 05:16:56;;;;;;;28.90;27.40;;;;;;;;;;5358194;26;20016;-70
2024/04/16 05:19:22;;;;;;;26.00;24.60;;;;;;;;;;5363424;26;20008;-69
2024/04/16 05:21:47;;;;;;;27.27;25.88;;;;;;;;;;5360459;26;20028;-69
2024/04/16 05:24:12;;;;;;;26.17;24.67;;;;;;;;;;5354329;26;20861;-69
2024/04/16 05:26:38;;;;;;;25.98;24.58;;;;;;;;;;5361054;26;20488;-70
2024/04/16 05:29:03;;;;;;;27.02;25.63;;;;;;;;;;5360801;26;20000;-71
2024/04/16 05:31:29;;;;;;;26.20;24.80;;;;;;;;;;5361592;26;20011;-69
2024/04/16 05:33:54;;;;;;;26.83;25.38;;;;;;;;;;5356632;26;20009;-69
2024/04/16 05:36:20;;;;;;;28.08;24.45;;;;;;;;;;5357154;26;20321;-70
2024/04/16 05:38:45;;;;;;;24.95;23.60;;;;;;;;;;5362830;26;20019;-70
2024/04/16 05:41:10;;;;;;;22.90;21.38;;;;;;;;;;5367872;26;20746;-70
2024/04/16 05:43:35;;;;;;;25.08;23.58;;;;;;;;;;5359618;26;20387;-69
2024/04/16 05:46:01;;;;;;;25.65;24.23;;;;;;;;;;5358577;26;20366;-70
2024/04/16 05:48:26;;;;;;;26.52;25.05;;;;;;;;;;5363928;26;20491;-70
2024/04/16 05:50:51;;;;;;;27.30;25.90;;;;;;;;;;5356715;26;20012;-69
2024/04/16 05:53:17;;;;;;;32.58;30.88;;;;;;;;;;5361987;26;20079;-69
2024/04/16 05:55:43;;;;;;;32.83;31.13;;;;;;;;;;5357355;26;20083;-69
2024/04/16 05:58:10;;;;;;;30.55;28.83;;;;;;;;;;5364041;26;20023;-69
2024/04/16 06:00:39;;;;;;;31.60;29.80;;;;;;;;;;5360414;26;20023;-69
2024/04/16 06:03:04;;;;;;;29.95;27.83;;;;;;;;;;5355501;26;20028;-69
2024/04/16 06:05:30;;;;;;;30.35;28.75;;;;;;;;;;5359458;26;20410;-70
2024/04/16 06:07:56;;;;;;;33.95;32.17;;;;;;;;;;5357560;26;21140;-69
2024/04/16 06:10:22;;;;;;;32.42;30.73;;;;;;;;;;5360752;26;20463;-68
2024/04/16 06:12:47;;;;;;;34.53;32.72;;;;;;;;;;5358692;26;20012;-69
2024/04/16 06:15:13;;;;;;;30.25;28.65;;;;;;;;;;5362147;26;20011;-69
2024/04/16 06:17:38;;;;;;;34.88;32.60;;;;;;;;;;5361300;26;20047;-68
2024/04/16 06:20:04;;;;;;;35.00;33.10;;;;;;;;;;5357006;26;20339;-69
2024/04/16 06:22:30;;;;;;;32.03;30.38;;;;;;;;;;5366422;26;20074;-70
2024/04/16 06:24:55;;;;;;;36.20;34.30;;;;;;;;;;5357931;26;20012;-68
2024/04/16 06:27:20;;;;;;;32.65;30.90;;;;;;;;;;5363854;26;20000;-68
2024/04/16 06:29:45;;;;;;;37.78;35.83;;;;;;;;;;5357872;26;20044;-68
2024/04/16 06:32:12;;;;;;;34.58;32.75;;;;;;;;;;5354451;26;20001;-68
2024/04/16 06:34:37;;;;;;;36.80;34.90;;;;;;;;;;5359858;26;20008;-69
2024/04/16 06:37:03;;;;;;;38.38;36.15;;;;;;;;;;5360866;26;20012;-69
2024/04/16 06:39:28;;;;;;;34.53;32.33;;;;;;;;;;5360066;26;20009;-69
2024/04/16 06:41:57;;;;;;;39.50;37.40;;;;;;;;;;5358912;26;20990;-69
2024/04/16 06:44:22;;;;;;;39.47;37.28;;;;;;;;;;5356390;26;20032;-68
2024/04/16 06:46:48;;;;;;;40.95;38.85;;;;;;;;;;5418133;26;20008;-68
2024/04/16 06:49:13;;;;;;;42.03;39.83;;;;;;;;;;5359804;26;20001;-69
2024/04/16 06:51:38;;;;;;;35.42;33.53;;;;;;;;;;5354451;26;20555;-68
2024/04/16 06:54:04;;;;;;;39.38;37.38;;;;;;;;;;5358513;26;20012;-69
2024/04/16 06:56:29;;;;;;;40.28;38.15;;;;;;;;;;5366546;26;20011;-69
2024/04/16 06:58:54;;;;;;;39.40;37.30;;;;;;;;;;5359621;26;20004;-69
2024/04/16 07:01:25;;;;;;;39.42;37.17;;;;;;;;;;5358925;26;20023;-68
2024/04/16 07:03:51;;;;;;;34.63;32.83;;;;;;;;;;5357370;26;20016;-69
2024/04/16 07:06:16;;;;;;;38.53;36.42;;;;;;;;;;5361261;26;20009;-69
2024/04/16 07:08:41;;;;;;;35.83;33.97;;;;;;;;;;5366954;26;20004;-68
2024/04/16 07:11:07;;;;;;;38.40;36.40;;;;;;;;;;5357133;26;20037;-68
2024/04/16 07:13:33;;;;;;;40.40;38.33;;;;;;;;;;5363523;26;20017;-69
2024/04/16 07:15:58;;;;;;;43.40;41.20;;;;;;;;;;5357679;26;20008;-69
2024/04/16 07:18:24;;;;;;;41.20;39.08;;;;;;;;;;5359027;26;20012;-69
2024/04/16 07:20:49;;;;;;;37.63;35.67;;;;;;;;;;5365237;26;20007;-69
2024/04/16 07:23:15;;;;;;;62.92;59.75;;;;;;;;;;5364357;26;20017;-69
2024/04/16 07:25:44;;;;;;;43.72;41.50;;;;;;;;;;5356455;26;20162;-69
2024/04/16 07:28:13;;;;;;;39.80;37.75;;;;;;;;;;5361435;26;20012;-69
2024/04/16 07:30:40;;;;;;;45.58;43.20;;;;;;;;;;5360866;26;20335;-69
2024/04/16 07:33:07;;;;;;;37.83;35.88;;;;;;;;;;5363514;26;20012;-69
2024/04/16 07:35:33;;;;;;;53.53;50.72;;;;;;;;;;5360799;26;20041;-69
2024/04/16 07:37:58;;;;;;;45.42;43.13;;;;;;;;;;5358791;26;20350;-70
2024/04/16 07:40:23;;;;;;;52.28;49.65;;;;;;;;;;5361451;26;20016;-69
2024/04/16 07:42:50;;;;;;;51.83;49.13;;;;;;;;;;5365229;26;20834;-69
2024/04/16 07:45:15;;;;;;;67.35;63.95;;;;;;;;;;5355599;26;20075;-69
2024/04/16 07:47:41;;;;;;;64.35;61.13;;;;;;;;;;5360942;26;20008;-69
2024/04/16 07:50:06;;;;;;;84.60;80.35;;;;;;;;;;5361219;26;20042;-69
2024/04/16 07:52:33;;;;;;;82.07;77.88;;;;;;;;;;5365110;26;20000;-69
2024/04/16 07:54:59;;;;;;;83.38;79.22;;;;;;;;;;5358604;26;20012;-69
2024/04/16 07:57:25;;;;;;;88.50;84.13;;;;;;;;;;5360946;26;20051;-68
2024/04/16 07:59:50;;;;;;;90.57;86.10;;;;;;;;;;5360713;26;20005;-69
2024/04/16 08:02:15;;;;;;;86.25;81.95;;;;;;;;;;5360976;26;20426;-67
2024/04/16 08:04:41;;;;;;;85.18;80.95;;;;;;;;;;5362859;26;20076;-65
2024/04/16 08:07:06;;;;;;;94.80;90.13;;;;;;;;;;5365399;26;20342;-65
2024/04/16 08:09:32;;;;;;;88.03;83.43;;;;;;;;;;5360691;26;20012;-66
2024/04/16 08:11:58;;;;;;;86.68;82.28;;;;;;;;;;5359663;26;20027;-65
2024/04/16 08:14:23;;;;;;;83.80;79.65;;;;;;;;;;5369810;26;20054;-65
2024/04/16 08:16:48;;;;;;;84.10;79.60;;;;;;;;;;5364486;26;20004;-65
2024/04/16 08:19:14;;;;;;;84.32;80.13;;;;;;;;;;5363103;26;20004;-65
2024/04/16 08:21:39;;;;;;;74.47;70.78;;;;;;;;;;5363959;26;20070;-65
2024/04/16 08:24:05;;;;;;;74.38;70.68;;;;;;;;;;5363597;26;20011;-65
2024/04/16 08:26:31;;;;;;;77.22;73.22;;;;;;;;;;5358623;26;20047;-65
2024/04/16 08:28:56;;;;;;;77.85;73.95;;;;;;;;;;5364968;26;20005;-64
2024/04/16 08:31:21;;;;;;;75.63;71.85;;;;;;;;;;5368584;26;20019;-64
2024/04/16 08:33:47;;;;;;;73.20;69.60;;;;;;;;;;5358574;26;20001;-65
2024/04/16 08:36:12;;;;;;;71.75;68.15;;;;;;;;;;5361386;26;20036;-65
2024/04/16 08:38:38;;;;;;;69.13;65.68;;;;;;;;;;5366457;26;19996;-65
2024/04/16 08:41:04;;;;;;;73.65;69.95;;;;;;;;;;5364841;26;20000;-65
2024/04/16 08:43:33;;;;;;;72.13;68.53;;;;;;;;;;5364607;26;20009;-67
2024/04/16 08:46:01;;;;;;;68.97;65.55;;;;;;;;;;5363907;26;20143;-67
2024/04/16 08:48:29;;;;;;;71.30;67.45;;;;;;;;;;5360037;26;20004;-67
2024/04/16 08:50:56;;;;;;;57.88;54.92;;;;;;;;;;5361952;26;19997;-68
2024/04/16 08:53:23;;;;;;;44.00;41.78;;;;;;;;;;5367182;26;20019;-67
2024/04/16 08:55:48;;;;;;;37.83;35.90;;;;;;;;;;5366302;26;20495;-67
2024/04/16 08:58:14;;;;;;;36.70;34.70;;;;;;;;;;5363631;26;20016;-68
2024/04/16 09:00:39;;;;;;;38.53;36.53;;;;;;;;;;5359918;26;20009;-67
2024/04/16 09:03:04;;;;;;;36.63;34.72;;;;;;;;;;5362166;26;20008;-68
2024/04/16 09:05:30;;;;;;;32.70;31.00;;;;;;;;;;5366775;26;20070;-68
2024/04/16 09:07:55;;;;;;;116.00;110.18;;;;;;;;;;5363739;26;19998;-68
2024/04/16 09:10:22;;;;;;;32.40;30.75;;;;;;;;;;5368445;26;20040;-67
2024/04/16 09:12:48;;;;;;;61.30;58.10;;;;;;;;;;5363935;26;20052;-67
2024/04/16 09:15:16;;;;;;;30.58;28.98;;;;;;;;;;5365757;26;20009;-67
2024/04/16 09:17:48;;;;;;;28.65;27.15;;;;;;;;;;5360088;26;20012;-67
2024/04/16 09:20:19;;;;;;;32.10;30.45;;;;;;;;;;5363636;26;20409;-64
2024/04/16 09:22:46;;;;;;;30.77;29.17;;;;;;;;;;5365391;26;20015;-67
2024/04/16 09:25:12;;;;;;;30.63;29.05;;;;;;;;;;5363486;26;21024;-66
2024/04/16 09:27:37;;;;;;;37.33;35.38;;;;;;;;;;5361333;26;20020;-65
2024/04/16 09:30:12;;;;;;;29.65;28.10;;;;;;;;;;5364510;26;20337;-67
2024/04/16 09:32:38;;;;;;;33.50;31.77;;;;;;;;;;5364767;26;20020;-66
2024/04/16 09:35:04;;;;;;;33.00;31.25;;;;;;;;;;5362851;26;20011;-69
2024/04/16 09:37:29;;;;;;;34.40;32.58;;;;;;;;;;5361424;26;20442;-67
2024/04/16 09:39:58;;;;;;;38.80;36.80;;;;;;;;;;5361032;26;20016;-67
2024/04/16 09:42:25;;;;;;;35.17;33.38;;;;;;;;;;5363597;26;20058;-67
2024/04/16 09:44:51;;;;;;;39.13;37.13;;;;;;;;;;5360451;26;20426;-65
2024/04/16 09:47:17;;;;;;;41.78;39.65;;;;;;;;;;5363992;26;20004;-65
2024/04/16 09:49:43;;;;;;;40.53;38.47;;;;;;;;;;5362188;26;20016;-65
2024/04/16 09:52:13;;;;;;;38.97;36.97;;;;;;;;;;5362550;26;20987;-67
2024/04/16 09:54:43;;;;;;;36.95;35.05;;;;;;;;;;5361476;26;20037;-67
2024/04/16 09:57:10;;;;;;;35.60;33.78;;;;;;;;;;5364275;26;20025;-66
2024/04/16 09:59:40;;;;;;;34.38;32.50;;;;;;;;;;5364257;26;20016;-65
2024/04/16 10:02:09;;;;;;;34.83;33.05;;;;;;;;;;5373885;26;20075;-66
2024/04/16 10:04:35;;;;;;;37.38;35.47;;;;;;;;;;5358356;26;20001;-67
2024/04/16 10:07:00;;;;;;;36.17;33.85;;;;;;;;;;5365404;26;20085;-66
2024/04/16 10:09:26;;;;;;;34.72;32.95;;;;;;;;;;5365645;26;20020;-67
2024/04/16 10:11:51;;;;;;;34.00;32.25;;;;;;;;;;5364941;26;20104;-67
2024/04/16 10:14:20;;;;;;;40.17;38.13;;;;;;;;;;5358261;26;20019;-67
2024/04/16 10:16:48;;;;;;;43.80;41.55;;;;;;;;;;5364244;26;20060;-67
2024/04/16 10:19:15;;;;;;;39.15;37.17;;;;;;;;;;5362444;26;20303;-67
2024/04/16 10:21:45;;;;;;;39.95;37.90;;;;;;;;;;5366845;26;20013;-67
2024/04/16 10:24:11;;;;;;;38.05;36.10;;;;;;;;;;5361396;26;20001;-65
2024/04/16 10:26:39;;;;;;;38.38;36.38;;;;;;;;;;5361447;26;20000;-65
2024/04/16 10:29:12;;;;;;;38.78;36.75;;;;;;;;;;5361027;26;20458;-65
2024/04/16 10:31:39;;;;;;;39.13;37.13;;;;;;;;;;5362573;26;20080;-67
2024/04/16 10:34:04;;;;;;;36.80;34.92;;;;;;;;;;5362801;26;20016;-67
2024/04/16 10:36:31;;;;;;;36.10;34.25;;;;;;;;;;5362494;26;20066;-67
2024/04/16 10:38:57;;;;;;;32.95;31.25;;;;;;;;;;5358460;26;20005;-67
2024/04/16 10:41:28;;;;;;;36.17;34.33;;;;;;;;;;5359074;26;20023;-65
2024/04/16 10:43:57;;;;;;;35.22;33.40;;;;;;;;;;5360194;26;20012;-66
2024/04/16 10:46:23;;;;;;;33.17;31.40;;;;;;;;;;5364334;26;20449;-66
2024/04/16 10:48:50;;;;;;;34.60;32.83;;;;;;;;;;5363575;26;20011;-67
2024/04/16 10:51:15;;;;;;;32.70;31.00;;;;;;;;;;5362492;26;20021;-67
2024/04/16 10:53:41;;;;;;;29.35;27.77;;;;;;;;;;5361969;26;20001;-67
2024/04/16 10:56:10;;;;;;;30.50;28.92;;;;;;;;;;5362327;26;20027;-68
2024/04/16 10:58:36;;;;;;;29.35;27.80;;;;;;;;;;5361401;26;20314;-65
2024/04/16 11:01:01;;;;;;;27.35;25.92;;;;;;;;;;5363315;26;20012;-65
2024/04/16 11:03:28;;;;;;;31.05;29.30;;;;;;;;;;5359761;26;20033;-66
2024/04/16 11:05:56;;;;;;;28.05;26.58;;;;;;;;;;5359032;26;20008;-68
2024/04/16 11:08:21;;;;;;;25.33;24.00;;;;;;;;;;5360290;26;20016;-67
2024/04/16 11:10:49;;;;;;;28.52;27.02;;;;;;;;;;5361270;26;20592;-65
2024/04/16 11:13:18;;;;;;;25.75;24.38;;;;;;;;;;5362556;26;20007;-69
2024/04/16 11:15:44;;;;;;;26.30;24.70;;;;;;;;;;5357191;26;20334;-64
2024/04/16 11:18:10;;;;;;;23.92;22.63;;;;;;;;;;5357968;26;20005;-69
2024/04/16 11:20:36;;;;;;;25.65;24.27;;;;;;;;;;5359509;26;20008;-68
2024/04/16 11:23:02;;;;;;;23.88;22.55;;;;;;;;;;5367173;26;20022;-69
2024/04/16 11:25:31;;;;;;;25.58;24.23;;;;;;;;;;5362738;26;20414;-68
2024/04/16 11:27:57;;;;;;;23.23;22.02;;;;;;;;;;5416481;26;20020;-68
2024/04/16 11:30:23;;;;;;;24.90;23.60;;;;;;;;;;5367397;26;20012;-69
2024/04/16 11:32:49;;;;;;;26.10;24.73;;;;;;;;;;5365706;26;20012;-68
2024/04/16 11:35:15;;;;;;;26.67;25.27;;;;;;;;;;5362381;26;20428;-68
2024/04/16 11:37:44;;;;;;;26.58;25.15;;;;;;;;;;5363926;26;20007;-68
2024/04/16 11:40:10;;;;;;;29.30;27.75;;;;;;;;;;5361785;26;20030;-65
2024/04/16 11:42:36;;;;;;;32.60;30.90;;;;;;;;;;5363550;26;20012;-64
2024/04/16 11:45:02;;;;;;;41.50;39.33;;;;;;;;;;5359587;26;20011;-68
2024/04/16 11:47:28;;;;;;;36.42;34.53;;;;;;;;;;5364421;26;20453;-68
2024/04/16 11:49:53;;;;;;;42.08;39.97;;;;;;;;;;5365093;26;20059;-68
2024/04/16 11:52:19;;;;;;;42.90;40.70;;;;;;;;;;5367876;26;20016;-66
2024/04/16 11:54:44;;;;;;;45.03;42.72;;;;;;;;;;5335656;26;20072;-65
2024/04/16 11:57:10;;;;;;;51.22;48.63;;;;;;;;;;5367452;26;20015;-65
2024/04/16 11:59:35;;;;;;;48.13;45.72;;;;;;;;;;5365245;26;20310;-66
2024/04/16 12:02:02;;;;;;;42.65;40.42;;;;;;;;;;5362922;26;20030;-65
2024/04/16 12:04:27;;;;;;;42.25;40.05;;;;;;;;;;5362310;26;20050;-65
2024/04/16 12:06:52;;;;;;;39.92;37.90;;;;;;;;;;5362399;26;20426;-65
2024/04/16 12:09:19;;;;;;;44.33;42.10;;;;;;;;;;5365435;26;20023;-65
2024/04/16 12:11:45;;;;;;;37.88;35.97;;;;;;;;;;5359991;26;20004;-65
2024/04/16 12:14:10;;;;;;;42.13;40.00;;;;;;;;;;5366009;26;20081;-65
2024/04/16 12:16:38;;;;;;;37.50;35.60;;;;;;;;;;5368479;26;20022;-69
2024/04/16 12:19:04;;;;;;;34.10;32.38;;;;;;;;;;5418305;26;20012;-68
2024/04/16 12:21:29;;;;;;;30.63;29.00;;;;;;;;;;5361380;26;20005;-68
2024/04/16 12:23:55;;;;;;;33.42;31.73;;;;;;;;;;5360800;26;20020;-68
2024/04/16 12:26:20;;;;;;;32.65;30.95;;;;;;;;;;5363664;26;20426;-68
2024/04/16 12:28:47;;;;;;;29.25;27.75;;;;;;;;;;5360296;26;20353;-69
2024/04/16 12:31:13;;;;;;;37.92;36.00;;;;;;;;;;5360665;26;20008;-64
2024/04/16 12:33:38;;;;;;;36.47;34.60;;;;;;;;;;5360877;26;20436;-65
2024/04/16 12:36:04;;;;;;;26.17;24.77;;;;;;;;;;5363757;26;20012;-69
2024/04/16 12:38:32;;;;;;;24.75;23.45;;;;;;;;;;5359661;26;20008;-69
2024/04/16 12:40:59;;;;;;;23.33;22.05;;;;;;;;;;5362664;26;20009;-65
2024/04/16 12:43:25;;;;;;;23.27;22.08;;;;;;;;;;5357238;26;20034;-65
2024/04/16 12:45:57;;;;;;;23.88;22.58;;;;;;;;;;5362340;26;20000;-68
2024/04/16 12:48:23;;;;;;;23.83;22.52;;;;;;;;;;5360142;26;20008;-68
2024/04/16 12:50:49;;;;;;;27.45;26.02;;;;;;;;;;5360669;26;20022;-65
2024/04/16 12:53:14;;;;;;;26.05;24.65;;;;;;;;;;5364843;26;20517;-68
2024/04/16 12:55:39;;;;;;;31.10;29.38;;;;;;;;;;5356202;26;20016;-68
2024/04/16 12:58:05;;;;;;;25.50;24.20;;;;;;;;;;5360650;26;20008;-69
2024/04/16 13:00:31;;;;;;;25.05;23.75;;;;;;;;;;5357305;26;20013;-64
2024/04/16 13:02:56;;;;;;;30.23;28.63;;;;;;;;;;5356240;26;20098;-64
2024/04/16 13:05:22;;;;;;;24.25;22.95;;;;;;;;;;5361671;26;20756;-67
2024/04/16 13:07:48;;;;;;;35.90;34.10;;;;;;;;;;5417380;26;20031;-68
2024/04/16 13:10:14;;;;;;;31.50;29.90;;;;;;;;;;5362037;26;20011;-69
2024/04/16 13:12:40;;;;;;;21.95;20.75;;;;;;;;;;5361271;26;20426;-67
2024/04/16 13:15:06;;;;;;;33.75;32.03;;;;;;;;;;5364701;26;20017;-65
2024/04/16 13:17:31;;;;;;;38.63;36.65;;;;;;;;;;5361716;26;20005;-65
2024/04/16 13:19:57;;;;;;;32.35;30.65;;;;;;;;;;5358457;26;20457;-65
2024/04/16 13:22:23;;;;;;;38.17;36.22;;;;;;;;;;5363289;26;20134;-66
2024/04/16 13:24:49;;;;;;;33.35;31.65;;;;;;;;;;5364208;26;20033;-66
2024/04/16 13:27:14;;;;;;;31.73;30.08;;;;;;;;;;5362023;26;20027;-66
2024/04/16 13:29:39;;;;;;;30.08;28.48;;;;;;;;;;5364181;26;20404;-68
2024/04/16 13:32:05;;;;;;;26.52;25.13;;;;;;;;;;5361462;26;20040;-68
2024/04/16 13:34:31;;;;;;;27.00;25.60;;;;;;;;;;5362215;26;20004;-66
2024/04/16 13:36:56;;;;;;;30.88;29.27;;;;;;;;;;5358856;26;20063;-64
2024/04/16 13:39:21;;;;;;;31.45;29.85;;;;;;;;;;5364139;26;20004;-66
2024/04/16 13:41:47;;;;;;;28.38;26.88;;;;;;;;;;5367595;26;20661;-67
2024/04/16 13:44:13;;;;;;;25.92;24.52;;;;;;;;;;5359516;26;20019;-65
2024/04/16 13:46:39;;;;;;;39.33;37.25;;;;;;;;;;5361126;26;19997;-66
2024/04/16 13:49:04;;;;;;;45.90;43.58;;;;;;;;;;5361994;26;20084;-65
2024/04/16 13:51:30;;;;;;;38.58;36.58;;;;;;;;;;5362663;26;20078;-67
2024/04/16 13:53:55;;;;;;;35.58;33.42;;;;;;;;;;5361560;26;20020;-68
2024/04/16 13:56:20;;;;;;;31.45;29.50;;;;;;;;;;5360306;26;20023;-67
2024/04/16 13:58:46;;;;;;;29.88;28.30;;;;;;;;;;5360416;26;20058;-67
2024/04/16 14:01:12;;;;;;;33.15;31.45;;;;;;;;;;5365037;26;20004;-67
2024/04/16 14:03:37;;;;;;;30.05;28.48;;;;;;;;;;5360009;26;20418;-68
2024/04/16 14:06:03;;;;;;;28.63;27.13;;;;;;;;;;5357065;26;20072;-67
2024/04/16 14:08:29;;;;;;;38.38;36.38;;;;;;;;;;5361562;26;20018;-68